createdAt,value
2022-12-01T00:00:00.237Z,26.5
2022-12-01T00:01:00.583Z,26.5
2022-12-01T00:02:00.384Z,27.0
2022-12-01T00:03:00.332Z,27.0
2022-12-01T00:04:00.260Z,27.0
2022-12-01T00:05:00.206Z,27.0
2022-12-01T00:06:02.667Z,27.0
2022-12-01T00:07:00.237Z,29.8
2022-12-01T00:08:00.384Z,29.8
2022-12-01T00:09:00.248Z,29.8
2022-12-01T00:10:00.325Z,29.8
2022-12-01T00:11:09.910Z,29.8
2022-12-01T00:12:00.227Z,28.0
2022-12-01T00:13:03.829Z,28.0
2022-12-01T00:14:00.515Z,28.0
2022-12-01T00:15:00.253Z,28.0
2022-12-01T00:16:12.333Z,28.0
2022-12-01T00:17:00.341Z,26.8
2022-12-01T00:18:01.698Z,26.8
2022-12-01T00:19:00.644Z,26.8
2022-12-01T00:20:00.248Z,26.8
2022-12-01T00:21:00.227Z,26.8
2022-12-01T00:22:00.412Z,27.1
2022-12-01T00:23:00.590Z,27.1
2022-12-01T00:24:00.334Z,27.1
2022-12-01T00:25:00.331Z,27.1
2022-12-01T00:26:02.994Z,27.1
2022-12-01T00:27:00.231Z,28.5
2022-12-01T00:28:00.271Z,28.5
2022-12-01T00:29:00.379Z,28.5
2022-12-01T00:30:00.406Z,28.5
2022-12-01T00:31:00.256Z,28.5
2022-12-01T00:32:00.288Z,29.4
2022-12-01T00:33:00.263Z,29.4
2022-12-01T00:34:00.587Z,29.4
2022-12-01T00:35:00.335Z,29.4
2022-12-01T00:36:00.760Z,29.4
2022-12-01T00:37:00.271Z,28.6
2022-12-01T00:38:00.276Z,28.6
2022-12-01T00:39:00.256Z,28.6
2022-12-01T00:40:01.001Z,28.6
2022-12-01T00:41:00.907Z,28.6
2022-12-01T00:42:00.259Z,28.7
2022-12-01T00:43:00.223Z,28.7
2022-12-01T00:44:00.221Z,28.7
2022-12-01T00:45:00.295Z,28.7
2022-12-01T00:46:00.383Z,28.7
2022-12-01T00:47:00.213Z,29.0
2022-12-01T00:48:00.251Z,29.0
2022-12-01T00:49:00.346Z,29.0
2022-12-01T00:50:00.234Z,29.0
2022-12-01T00:51:00.631Z,29.0
2022-12-01T00:52:00.260Z,29.5
2022-12-01T00:53:00.234Z,29.5
2022-12-01T00:54:00.273Z,29.5
2022-12-01T00:55:00.279Z,29.5
2022-12-01T00:56:00.245Z,29.5
2022-12-01T00:57:00.289Z,28.3
2022-12-01T00:58:00.354Z,28.3
2022-12-01T00:59:00.370Z,28.3
2022-12-01T01:00:00.246Z,28.3
2022-12-01T01:01:01.365Z,28.3
2022-12-01T01:02:01.613Z,29.0
2022-12-01T01:03:00.537Z,29.0
2022-12-01T01:04:00.268Z,29.0
2022-12-01T01:05:00.221Z,29.0
2022-12-01T01:06:10.966Z,29.0
2022-12-01T01:07:00.342Z,28.4
2022-12-01T01:08:00.302Z,28.4
2022-12-01T01:09:00.401Z,28.4
2022-12-01T01:10:00.406Z,28.4
2022-12-01T01:11:00.636Z,28.4
2022-12-01T01:12:00.248Z,26.7
2022-12-01T01:13:00.253Z,26.7
2022-12-01T01:14:00.289Z,26.7
2022-12-01T01:15:00.298Z,26.7
2022-12-01T01:16:04.106Z,26.7
2022-12-01T01:17:00.396Z,28.8
2022-12-01T01:18:00.371Z,28.8
2022-12-01T01:19:00.332Z,28.8
2022-12-01T01:20:00.426Z,28.8
2022-12-01T01:21:03.715Z,28.8
2022-12-01T01:22:00.290Z,27.2
2022-12-01T01:23:00.252Z,27.2
2022-12-01T01:24:00.563Z,27.2
2022-12-01T01:25:00.354Z,27.2
2022-12-01T01:26:06.341Z,27.2
2022-12-01T01:27:00.295Z,26.5
2022-12-01T01:28:00.275Z,26.5
2022-12-01T01:29:02.830Z,26.5
2022-12-01T01:30:00.239Z,26.5
2022-12-01T01:31:05.995Z,26.5
2022-12-01T01:32:00.230Z,25.5
2022-12-01T01:33:00.250Z,25.5
2022-12-01T01:34:00.324Z,25.5
2022-12-01T01:35:00.263Z,25.5
2022-12-01T01:36:01.233Z,25.5
2022-12-01T01:37:00.232Z,25.9
2022-12-01T01:38:00.361Z,25.9
2022-12-01T01:39:00.713Z,25.9
2022-12-01T01:40:00.287Z,25.9
2022-12-01T01:41:01.293Z,25.9
2022-12-01T01:42:00.218Z,27.5
2022-12-01T01:43:00.300Z,27.5
2022-12-01T01:44:01.563Z,27.5
2022-12-01T01:45:00.430Z,27.5
2022-12-01T01:46:00.292Z,27.5
2022-12-01T01:47:00.524Z,28.2
2022-12-01T01:48:00.377Z,28.2
2022-12-01T01:49:03.567Z,28.2
2022-12-01T01:50:05.827Z,28.2
2022-12-01T01:51:00.936Z,28.2
2022-12-01T01:52:02.733Z,27.2
2022-12-01T01:53:03.901Z,27.2
2022-12-01T01:54:05.378Z,27.2
2022-12-01T01:55:01.797Z,27.2
2022-12-01T01:56:01.827Z,27.2
2022-12-01T01:57:02.105Z,26.0
2022-12-01T01:58:03.514Z,26.0
2022-12-01T01:59:00.380Z,26.0
2022-12-01T02:00:05.741Z,26.0
2022-12-01T02:01:00.312Z,26.0
2022-12-01T02:02:04.247Z,26.8
2022-12-01T02:03:01.319Z,26.8
2022-12-01T02:04:00.549Z,26.8
2022-12-01T02:05:01.868Z,26.8
2022-12-01T02:06:04.631Z,26.8
2022-12-01T02:07:00.419Z,26.6
2022-12-01T02:08:02.875Z,26.6
2022-12-01T02:09:00.376Z,26.6
2022-12-01T02:10:00.324Z,26.6
2022-12-01T02:11:11.204Z,26.6
2022-12-01T02:12:14.116Z,25.5
2022-12-01T02:13:11.200Z,25.5
2022-12-01T02:14:10.190Z,25.5
2022-12-01T02:15:01.250Z,25.5
2022-12-01T02:16:08.816Z,25.5
2022-12-01T02:17:20.134Z,24.9
2022-12-01T02:18:15.120Z,24.9
2022-12-01T02:19:20.134Z,24.9
2022-12-01T02:20:10.218Z,24.9
2022-12-01T02:21:11.216Z,24.9
2022-12-01T02:22:02.292Z,22.9
2022-12-01T02:23:20.163Z,22.9
2022-12-01T02:24:20.133Z,22.9
2022-12-01T02:25:11.202Z,22.9
2022-12-01T02:26:20.143Z,22.9
2022-12-01T02:27:06.054Z,23.9
2022-12-01T02:28:11.236Z,23.9
2022-12-01T02:29:11.344Z,23.9
2022-12-01T02:30:12.948Z,23.9
2022-12-01T02:31:15.687Z,23.9
2022-12-01T02:32:11.175Z,23.8
2022-12-01T02:33:10.716Z,23.8
2022-12-01T02:34:09.429Z,23.8
2022-12-01T02:35:10.183Z,23.8
2022-12-01T02:36:14.146Z,23.8
2022-12-01T02:37:09.836Z,24.7
2022-12-01T02:38:18.102Z,24.7
2022-12-01T02:39:07.935Z,24.7
2022-12-01T02:40:11.203Z,24.7
2022-12-01T02:41:14.186Z,24.7
2022-12-01T02:42:08.471Z,25.0
2022-12-01T02:43:09.305Z,25.0
2022-12-01T02:44:10.370Z,25.0
2022-12-01T02:45:04.218Z,25.0
2022-12-01T02:46:10.227Z,25.0
2022-12-01T02:47:09.643Z,25.6
2022-12-01T02:48:01.557Z,25.6
2022-12-01T02:49:07.052Z,25.6
2022-12-01T02:50:01.894Z,25.6
2022-12-01T02:51:08.239Z,25.6
2022-12-01T02:52:02.274Z,25.9
2022-12-01T02:53:02.977Z,25.9
2022-12-01T02:54:02.224Z,25.9
2022-12-01T02:55:00.392Z,25.9
2022-12-01T02:56:00.342Z,25.9
2022-12-01T02:57:00.300Z,25.1
2022-12-01T02:58:00.496Z,25.1
2022-12-01T02:59:00.271Z,25.1
2022-12-01T03:00:01.174Z,25.1
2022-12-01T03:01:10.609Z,25.1
2022-12-01T03:02:16.915Z,27.1
2022-12-01T03:03:20.167Z,27.1
2022-12-01T03:04:03.527Z,27.1
2022-12-01T03:05:05.626Z,27.1
2022-12-01T03:06:16.260Z,26.7
2022-12-01T03:07:20.210Z,26.7
2022-12-01T03:08:20.115Z,26.7
2022-12-01T03:09:01.268Z,26.7
2022-12-01T03:10:11.188Z,26.7
2022-12-01T03:11:01.796Z,26.7
2022-12-01T03:12:14.305Z,25.6
2022-12-01T03:13:17.515Z,25.6
2022-12-01T03:14:11.187Z,25.6
2022-12-01T03:15:10.170Z,25.6
2022-12-01T03:16:12.799Z,25.6
2022-12-01T03:17:04.725Z,26.9
2022-12-01T03:18:20.133Z,26.9
2022-12-01T03:19:20.131Z,26.9
2022-12-01T03:20:16.565Z,26.9
2022-12-01T03:21:06.352Z,26.9
2022-12-01T03:22:04.842Z,26.0
2022-12-01T03:23:08.523Z,26.0
2022-12-01T03:24:06.148Z,26.0
2022-12-01T03:25:02.694Z,26.0
2022-12-01T03:26:03.367Z,26.0
2022-12-01T03:27:02.978Z,28.2
2022-12-01T03:28:21.199Z,28.2
2022-12-01T03:29:05.739Z,28.2
2022-12-01T03:30:03.238Z,28.2
2022-12-01T03:31:05.206Z,28.2
2022-12-01T03:32:07.160Z,27.5
2022-12-01T03:33:04.602Z,27.5
2022-12-01T03:34:13.044Z,27.5
2022-12-01T03:35:05.012Z,27.5
2022-12-01T03:36:13.793Z,26.4
2022-12-01T03:37:05.527Z,26.4
2022-12-01T03:38:07.093Z,26.4
2022-12-01T03:39:05.511Z,26.4
2022-12-01T03:40:03.718Z,26.4
2022-12-01T03:41:05.745Z,26.4
2022-12-01T03:42:10.836Z,29.0
2022-12-01T03:43:05.062Z,29.0
2022-12-01T03:44:07.825Z,29.0
2022-12-01T03:45:04.401Z,29.0
2022-12-01T03:46:08.793Z,28.5
2022-12-01T03:47:04.234Z,28.5
2022-12-01T03:48:00.603Z,28.5
2022-12-01T03:49:00.258Z,28.5
2022-12-01T03:50:01.419Z,28.5
2022-12-01T03:51:11.201Z,29.2
2022-12-01T03:52:12.990Z,29.2
2022-12-01T03:53:13.437Z,29.2
2022-12-01T03:54:10.170Z,29.2
2022-12-01T03:55:10.161Z,29.2
2022-12-01T03:56:04.753Z,29.0
2022-12-01T03:57:05.006Z,29.0
2022-12-01T03:58:04.617Z,29.0
2022-12-01T03:59:03.912Z,29.0
2022-12-01T04:00:00.851Z,29.0
2022-12-01T04:01:01.792Z,29.0
2022-12-01T04:02:00.775Z,29.3
2022-12-01T04:03:02.580Z,29.3
2022-12-01T04:04:05.683Z,29.3
2022-12-01T04:05:00.242Z,29.3
2022-12-01T04:06:00.372Z,29.3
2022-12-01T04:07:00.321Z,28.9
2022-12-01T04:08:00.624Z,28.9
2022-12-01T04:09:00.620Z,28.9
2022-12-01T04:10:00.415Z,28.9
2022-12-01T04:11:00.278Z,28.9
2022-12-01T04:12:00.236Z,27.2
2022-12-01T04:13:00.260Z,27.2
2022-12-01T04:14:00.264Z,27.2
2022-12-01T04:15:04.902Z,27.2
2022-12-01T04:16:00.309Z,27.2
2022-12-01T04:17:00.261Z,27.2
2022-12-01T04:18:00.269Z,27.2
2022-12-01T04:19:00.299Z,27.2
2022-12-01T04:20:00.735Z,27.2
2022-12-01T04:21:00.215Z,30.7
2022-12-01T04:22:00.259Z,30.7
2022-12-01T04:23:00.259Z,30.7
2022-12-01T04:24:00.263Z,30.7
2022-12-01T04:25:00.471Z,30.7
2022-12-01T04:26:02.792Z,29.6
2022-12-01T04:27:00.219Z,29.6
2022-12-01T04:28:00.292Z,29.6
2022-12-01T04:29:07.641Z,29.6
2022-12-01T04:30:00.437Z,29.6
2022-12-01T04:31:00.358Z,29.2
2022-12-01T04:32:00.262Z,29.2
2022-12-01T04:33:00.216Z,29.2
2022-12-01T04:34:00.384Z,29.2
2022-12-01T04:35:00.232Z,29.2
2022-12-01T04:36:00.355Z,29.0
2022-12-01T04:37:00.586Z,29.0
2022-12-01T04:38:00.376Z,29.0
2022-12-01T04:39:01.387Z,29.0
2022-12-01T04:40:00.264Z,29.0
2022-12-01T04:41:00.229Z,30.5
2022-12-01T04:42:00.346Z,30.5
2022-12-01T04:43:00.223Z,30.5
2022-12-01T04:44:00.293Z,30.5
2022-12-01T04:45:00.528Z,30.5
2022-12-01T04:46:00.301Z,29.2
2022-12-01T04:47:00.862Z,29.2
2022-12-01T04:48:00.261Z,29.2
2022-12-01T04:49:00.258Z,29.2
2022-12-01T04:50:00.305Z,29.2
2022-12-01T04:51:01.187Z,29.6
2022-12-01T04:52:00.317Z,29.6
2022-12-01T04:53:00.259Z,29.6
2022-12-01T04:54:01.215Z,29.6
2022-12-01T04:55:00.233Z,29.6
2022-12-01T04:56:00.750Z,31.7
2022-12-01T04:57:00.319Z,31.7
2022-12-01T04:58:00.250Z,31.7
2022-12-01T04:59:00.298Z,31.7
2022-12-01T05:00:00.659Z,31.7
2022-12-01T05:01:02.376Z,30.9
2022-12-01T05:02:00.305Z,30.9
2022-12-01T05:03:00.295Z,30.9
2022-12-01T05:04:00.262Z,30.9
2022-12-01T05:05:00.237Z,30.9
2022-12-01T05:06:13.350Z,31.1
2022-12-01T05:07:00.213Z,31.1
2022-12-01T05:08:00.350Z,31.1
2022-12-01T05:09:00.837Z,31.1
2022-12-01T05:10:00.284Z,31.1
2022-12-01T05:11:00.847Z,33.2
2022-12-01T05:12:00.254Z,33.2
2022-12-01T05:13:00.336Z,33.2
2022-12-01T05:14:00.586Z,33.2
2022-12-01T05:15:00.243Z,33.2
2022-12-01T05:16:06.759Z,31.4
2022-12-01T05:17:00.372Z,31.4
2022-12-01T05:18:00.267Z,31.4
2022-12-01T05:19:03.550Z,31.4
2022-12-01T05:20:00.287Z,31.4
2022-12-01T05:21:01.152Z,32.9
2022-12-01T05:22:00.283Z,32.9
2022-12-01T05:23:06.030Z,32.9
2022-12-01T05:24:00.302Z,32.9
2022-12-01T05:25:00.289Z,32.9
2022-12-01T05:26:01.810Z,33.6
2022-12-01T05:27:00.381Z,33.6
2022-12-01T05:28:00.230Z,33.6
2022-12-01T05:29:00.960Z,33.6
2022-12-01T05:30:00.226Z,33.6
2022-12-01T05:31:01.042Z,33.1
2022-12-01T05:32:00.455Z,33.1
2022-12-01T05:33:00.305Z,33.1
2022-12-01T05:34:00.294Z,33.1
2022-12-01T05:35:00.276Z,33.1
2022-12-01T05:36:00.371Z,33.6
2022-12-01T05:37:00.377Z,33.6
2022-12-01T05:38:06.088Z,33.6
2022-12-01T05:39:00.329Z,33.6
2022-12-01T05:40:00.864Z,33.6
2022-12-01T05:41:00.328Z,32.4
2022-12-01T05:42:00.239Z,32.4
2022-12-01T05:43:00.546Z,32.4
2022-12-01T05:44:00.267Z,32.4
2022-12-01T05:45:00.261Z,32.4
2022-12-01T05:46:00.354Z,30.8
2022-12-01T05:47:00.282Z,30.8
2022-12-01T05:48:01.107Z,30.8
2022-12-01T05:49:00.240Z,30.8
2022-12-01T05:50:05.210Z,30.8
2022-12-01T05:51:06.905Z,32.1
2022-12-01T05:52:00.215Z,32.1
2022-12-01T05:53:00.284Z,32.1
2022-12-01T05:54:00.505Z,32.1
2022-12-01T05:55:00.678Z,32.1
2022-12-01T05:56:00.247Z,32.6
2022-12-01T05:57:00.241Z,32.6
2022-12-01T05:58:01.375Z,32.6
2022-12-01T05:59:00.264Z,32.6
2022-12-01T06:00:00.402Z,32.6
2022-12-01T06:01:01.086Z,32.1
2022-12-01T06:02:00.429Z,32.1
2022-12-01T06:03:00.348Z,32.1
2022-12-01T06:04:00.292Z,32.1
2022-12-01T06:05:00.311Z,32.1
2022-12-01T06:06:00.555Z,32.5
2022-12-01T06:07:00.244Z,32.5
2022-12-01T06:08:00.601Z,32.5
2022-12-01T06:09:00.240Z,32.5
2022-12-01T06:10:01.133Z,32.5
2022-12-01T06:11:00.309Z,31.7
2022-12-01T06:12:00.252Z,31.7
2022-12-01T06:13:00.328Z,31.7
2022-12-01T06:14:00.362Z,31.7
2022-12-01T06:15:00.233Z,31.7
2022-12-01T06:16:02.747Z,32.2
2022-12-01T06:17:00.638Z,32.2
2022-12-01T06:18:00.701Z,32.2
2022-12-01T06:19:00.229Z,32.2
2022-12-01T06:20:00.685Z,32.2
2022-12-01T06:21:00.582Z,29.8
2022-12-01T06:22:00.463Z,29.8
2022-12-01T06:23:00.306Z,29.8
2022-12-01T06:24:00.252Z,29.8
2022-12-01T06:25:00.381Z,29.8
2022-12-01T06:26:00.270Z,30.0
2022-12-01T06:27:00.338Z,30.0
2022-12-01T06:28:00.216Z,30.0
2022-12-01T06:29:00.305Z,30.0
2022-12-01T06:30:00.285Z,30.0
2022-12-01T06:31:03.513Z,29.1
2022-12-01T06:32:00.302Z,29.1
2022-12-01T06:33:00.232Z,29.1
2022-12-01T06:34:00.237Z,29.1
2022-12-01T06:35:00.338Z,29.1
2022-12-01T06:36:02.702Z,29.0
2022-12-01T06:37:00.264Z,29.0
2022-12-01T06:38:00.571Z,29.0
2022-12-01T06:39:00.223Z,29.0
2022-12-01T06:40:00.293Z,29.0
2022-12-01T06:41:00.733Z,29.0
2022-12-01T06:42:00.295Z,29.0
2022-12-01T06:43:01.018Z,29.0
2022-12-01T06:44:00.303Z,29.0
2022-12-01T06:45:00.256Z,29.0
2022-12-01T06:46:02.630Z,28.7
2022-12-01T06:47:00.344Z,28.7
2022-12-01T06:48:00.212Z,28.7
2022-12-01T06:49:00.263Z,28.7
2022-12-01T06:50:00.247Z,28.7
2022-12-01T06:51:01.568Z,31.2
2022-12-01T06:52:01.171Z,31.2
2022-12-01T06:53:00.348Z,31.2
2022-12-01T06:54:05.249Z,31.2
2022-12-01T06:55:00.330Z,31.2
2022-12-01T06:56:01.168Z,30.6
2022-12-01T06:57:00.228Z,30.6
2022-12-01T06:58:00.229Z,30.6
2022-12-01T06:59:00.383Z,30.6
2022-12-01T07:00:00.275Z,30.6
2022-12-01T07:01:07.066Z,32.1
2022-12-01T07:02:00.388Z,32.1
2022-12-01T07:03:00.358Z,32.1
2022-12-01T07:04:00.287Z,32.1
2022-12-01T07:05:00.348Z,32.1
2022-12-01T07:06:01.296Z,32.6
2022-12-01T07:07:00.255Z,32.6
2022-12-01T07:08:00.346Z,32.6
2022-12-01T07:09:00.237Z,32.6
2022-12-01T07:10:00.530Z,32.6
2022-12-01T07:11:03.284Z,33.3
2022-12-01T07:12:00.298Z,33.3
2022-12-01T07:13:00.207Z,33.3
2022-12-01T07:14:00.281Z,33.3
2022-12-01T07:15:00.427Z,33.3
2022-12-01T07:16:01.889Z,34.0
2022-12-01T07:17:00.334Z,34.0
2022-12-01T07:18:00.251Z,34.0
2022-12-01T07:19:00.203Z,34.0
2022-12-01T07:20:00.264Z,34.0
2022-12-01T07:21:02.173Z,33.8
2022-12-01T07:22:00.228Z,33.8
2022-12-01T07:23:00.267Z,33.8
2022-12-01T07:24:00.243Z,33.8
2022-12-01T07:25:00.262Z,33.8
2022-12-01T07:26:02.871Z,34.8
2022-12-01T07:27:00.252Z,34.8
2022-12-01T07:28:00.703Z,34.8
2022-12-01T07:29:00.239Z,34.8
2022-12-01T07:30:00.480Z,34.8
2022-12-01T07:31:04.198Z,32.7
2022-12-01T07:32:00.382Z,32.7
2022-12-01T07:33:00.279Z,32.7
2022-12-01T07:34:00.266Z,32.7
2022-12-01T07:35:00.225Z,32.7
2022-12-01T07:36:00.430Z,33.9
2022-12-01T07:37:00.234Z,33.9
2022-12-01T07:38:00.210Z,33.9
2022-12-01T07:39:04.158Z,33.9
2022-12-01T07:40:00.284Z,33.9
2022-12-01T07:41:01.654Z,34.1
2022-12-01T07:42:00.231Z,34.1
2022-12-01T07:43:00.228Z,34.1
2022-12-01T07:44:00.777Z,34.1
2022-12-01T07:45:00.436Z,34.1
2022-12-01T07:46:12.834Z,33.8
2022-12-01T07:47:00.513Z,33.8
2022-12-01T07:48:00.310Z,33.8
2022-12-01T07:49:00.357Z,33.8
2022-12-01T07:50:00.237Z,33.8
2022-12-01T07:51:00.987Z,33.1
2022-12-01T07:52:00.244Z,33.1
2022-12-01T07:53:00.255Z,33.1
2022-12-01T07:54:02.856Z,33.1
2022-12-01T07:55:00.215Z,33.1
2022-12-01T07:56:04.363Z,32.9
2022-12-01T07:57:00.279Z,32.9
2022-12-01T07:58:00.273Z,32.9
2022-12-01T07:59:00.217Z,32.9
2022-12-01T08:00:00.320Z,32.9
2022-12-01T08:01:09.859Z,33.0
2022-12-01T08:02:00.386Z,33.0
2022-12-01T08:03:00.323Z,33.0
2022-12-01T08:04:00.257Z,33.0
2022-12-01T08:05:00.266Z,33.0
2022-12-01T08:06:01.645Z,34.1
2022-12-01T08:07:00.360Z,34.1
2022-12-01T08:08:00.583Z,34.1
2022-12-01T08:09:00.232Z,34.1
2022-12-01T08:10:00.214Z,34.1
2022-12-01T08:11:02.001Z,34.9
2022-12-01T08:12:00.245Z,34.9
2022-12-01T08:13:00.427Z,34.9
2022-12-01T08:14:00.473Z,34.9
2022-12-01T08:15:00.249Z,34.9
2022-12-01T08:16:04.034Z,33.8
2022-12-01T08:17:00.437Z,33.8
2022-12-01T08:18:00.334Z,33.8
2022-12-01T08:19:00.405Z,33.8
2022-12-01T08:20:00.251Z,33.8
2022-12-01T08:21:00.374Z,33.8
2022-12-01T08:22:00.225Z,33.8
2022-12-01T08:23:00.996Z,33.8
2022-12-01T08:24:00.264Z,33.8
2022-12-01T08:25:00.284Z,33.8
2022-12-01T08:26:00.936Z,33.7
2022-12-01T08:27:00.249Z,33.7
2022-12-01T08:28:00.286Z,33.7
2022-12-01T08:29:00.268Z,33.7
2022-12-01T08:30:00.824Z,33.7
2022-12-01T08:31:07.310Z,33.5
2022-12-01T08:32:00.783Z,33.5
2022-12-01T08:33:00.292Z,33.5
2022-12-01T08:34:03.401Z,33.5
2022-12-01T08:35:00.251Z,33.5
2022-12-01T08:36:01.359Z,34.4
2022-12-01T08:37:00.218Z,34.4
2022-12-01T08:38:00.251Z,34.4
2022-12-01T08:39:00.499Z,34.4
2022-12-01T08:40:00.272Z,34.4
2022-12-01T08:41:01.325Z,33.4
2022-12-01T08:42:00.308Z,33.4
2022-12-01T08:43:00.291Z,33.4
2022-12-01T08:44:01.486Z,33.4
2022-12-01T08:45:00.354Z,33.4
2022-12-01T08:46:00.505Z,32.1
2022-12-01T08:47:00.291Z,32.1
2022-12-01T08:48:00.228Z,32.1
2022-12-01T08:49:01.488Z,32.1
2022-12-01T08:50:00.226Z,32.1
2022-12-01T08:51:01.656Z,33.6
2022-12-01T08:52:00.250Z,33.6
2022-12-01T08:53:00.274Z,33.6
2022-12-01T08:54:00.435Z,33.6
2022-12-01T08:55:00.680Z,33.6
2022-12-01T08:56:02.706Z,33.0
2022-12-01T08:57:00.259Z,33.0
2022-12-01T08:58:00.212Z,33.0
2022-12-01T08:59:00.388Z,33.0
2022-12-01T09:00:00.322Z,33.0
2022-12-01T09:01:01.497Z,32.2
2022-12-01T09:02:05.353Z,32.2
2022-12-01T09:03:00.382Z,32.2
2022-12-01T09:04:01.616Z,32.2
2022-12-01T09:05:00.384Z,32.2
2022-12-01T09:06:01.439Z,32.9
2022-12-01T09:07:00.240Z,32.9
2022-12-01T09:08:00.398Z,32.9
2022-12-01T09:09:00.817Z,32.9
2022-12-01T09:10:00.356Z,32.9
2022-12-01T09:11:03.336Z,32.4
2022-12-01T09:12:00.365Z,32.4
2022-12-01T09:13:00.232Z,32.4
2022-12-01T09:14:00.303Z,32.4
2022-12-01T09:15:00.337Z,32.4
2022-12-01T09:16:02.918Z,31.4
2022-12-01T09:17:00.256Z,31.4
2022-12-01T09:18:00.234Z,31.4
2022-12-01T09:19:00.265Z,31.4
2022-12-01T09:20:00.223Z,31.7
2022-12-01T09:21:09.174Z,31.7
2022-12-01T09:22:00.395Z,31.7
2022-12-01T09:23:00.226Z,31.7
2022-12-01T09:24:01.138Z,31.7
2022-12-01T09:25:00.214Z,30.1
2022-12-01T09:26:00.229Z,30.1
2022-12-01T09:27:00.498Z,30.1
2022-12-01T09:28:00.216Z,30.1
2022-12-01T09:29:04.730Z,30.1
2022-12-01T09:30:00.401Z,31.7
2022-12-01T09:31:04.635Z,31.7
2022-12-01T09:32:00.462Z,31.7
2022-12-01T09:33:00.554Z,31.7
2022-12-01T09:34:03.095Z,31.7
2022-12-01T09:35:00.213Z,30.5
2022-12-01T09:36:01.427Z,30.5
2022-12-01T09:37:00.292Z,30.5
2022-12-01T09:38:00.458Z,30.5
2022-12-01T09:39:00.598Z,30.5
2022-12-01T09:40:00.214Z,29.9
2022-12-01T09:41:04.118Z,29.9
2022-12-01T09:42:08.994Z,29.9
2022-12-01T09:43:03.383Z,29.9
2022-12-01T09:44:06.839Z,29.9
2022-12-01T09:45:01.641Z,29.7
2022-12-01T09:46:03.473Z,29.7
2022-12-01T09:47:14.487Z,29.7
2022-12-01T09:48:03.657Z,29.7
2022-12-01T09:49:02.588Z,29.7
2022-12-01T09:50:01.284Z,26.3
2022-12-01T09:51:00.334Z,26.3
2022-12-01T09:52:00.302Z,26.3
2022-12-01T09:53:05.765Z,26.3
2022-12-01T09:54:01.401Z,26.3
2022-12-01T09:55:00.488Z,27.2
2022-12-01T09:56:06.064Z,27.2
2022-12-01T09:57:00.225Z,27.2
2022-12-01T09:58:03.488Z,27.2
2022-12-01T09:59:03.782Z,27.2
2022-12-01T10:00:05.342Z,28.4
2022-12-01T10:01:00.786Z,28.4
2022-12-01T10:02:03.278Z,28.4
2022-12-01T10:03:10.945Z,28.4
2022-12-01T10:04:08.710Z,28.4
2022-12-01T10:05:03.970Z,27.2
2022-12-01T10:06:28.355Z,27.2
2022-12-01T10:07:04.362Z,27.2
2022-12-01T10:08:04.816Z,27.2
2022-12-01T10:09:13.442Z,27.2
2022-12-01T10:10:05.559Z,28.8
2022-12-01T10:11:10.234Z,28.8
2022-12-01T10:12:15.829Z,28.8
2022-12-01T10:13:00.612Z,28.8
2022-12-01T10:14:02.181Z,28.8
2022-12-01T10:15:14.815Z,27.6
2022-12-01T10:16:08.237Z,27.6
2022-12-01T10:17:20.158Z,27.6
2022-12-01T10:18:07.689Z,27.6
2022-12-01T10:19:10.388Z,27.6
2022-12-01T10:20:09.446Z,28.0
2022-12-01T10:21:08.404Z,28.0
2022-12-01T10:22:20.135Z,28.0
2022-12-01T10:23:09.511Z,28.0
2022-12-01T10:24:13.996Z,28.0
2022-12-01T10:25:09.339Z,27.8
2022-12-01T10:26:16.967Z,27.8
2022-12-01T10:27:10.147Z,27.8
2022-12-01T10:28:11.199Z,27.8
2022-12-01T10:29:09.427Z,27.8
2022-12-01T10:30:12.837Z,28.4
2022-12-01T10:31:15.632Z,28.4
2022-12-01T10:32:09.822Z,28.4
2022-12-01T10:33:08.152Z,28.4
2022-12-01T10:34:05.498Z,28.4
2022-12-01T10:35:00.381Z,29.6
2022-12-01T10:36:00.602Z,29.6
2022-12-01T10:37:00.314Z,29.6
2022-12-01T10:38:03.545Z,29.6
2022-12-01T10:39:03.520Z,29.6
2022-12-01T10:40:01.200Z,29.9
2022-12-01T10:41:02.233Z,29.9
2022-12-01T10:42:06.591Z,29.9
2022-12-01T10:43:01.184Z,29.9
2022-12-01T10:44:03.561Z,29.9
2022-12-01T10:45:02.595Z,25.9
2022-12-01T10:46:10.728Z,25.9
2022-12-01T10:47:01.371Z,25.9
2022-12-01T10:48:12.732Z,25.9
2022-12-01T10:49:08.363Z,25.9
2022-12-01T10:50:02.148Z,28.1
2022-12-01T10:51:14.496Z,28.1
2022-12-01T10:52:00.435Z,28.1
2022-12-01T10:53:00.411Z,28.1
2022-12-01T10:54:07.415Z,28.1
2022-12-01T10:55:02.082Z,26.0
2022-12-01T10:56:10.626Z,26.0
2022-12-01T10:57:00.957Z,26.0
2022-12-01T10:58:09.233Z,26.0
2022-12-01T10:59:13.923Z,26.0
2022-12-01T11:00:05.888Z,24.3
2022-12-01T11:01:04.174Z,24.3
2022-12-01T11:02:01.729Z,24.3
2022-12-01T11:03:01.902Z,24.3
2022-12-01T11:04:06.082Z,24.3
2022-12-01T11:05:04.792Z,24.4
2022-12-01T11:06:03.333Z,24.4
2022-12-01T11:07:01.040Z,24.4
2022-12-01T11:08:00.493Z,24.4
2022-12-01T11:09:04.499Z,24.4
2022-12-01T11:10:11.113Z,24.9
2022-12-01T11:11:00.615Z,24.9
2022-12-01T11:12:02.871Z,24.9
2022-12-01T11:13:20.141Z,24.9
2022-12-01T11:14:04.751Z,24.9
2022-12-01T11:15:00.965Z,24.1
2022-12-01T11:16:04.885Z,24.1
2022-12-01T11:17:20.127Z,24.1
2022-12-01T11:18:02.812Z,24.1
2022-12-01T11:19:13.519Z,24.1
2022-12-01T11:20:20.243Z,25.9
2022-12-01T11:21:14.423Z,25.9
2022-12-01T11:22:11.782Z,25.9
2022-12-01T11:23:17.597Z,25.9
2022-12-01T11:24:00.305Z,25.9
2022-12-01T11:25:03.529Z,23.7
2022-12-01T11:26:12.862Z,23.7
2022-12-01T11:27:00.344Z,23.7
2022-12-01T11:28:02.754Z,23.7
2022-12-01T11:29:05.139Z,23.7
2022-12-01T11:30:04.541Z,22.1
2022-12-01T11:31:04.256Z,22.1
2022-12-01T11:32:11.184Z,22.1
2022-12-01T11:33:03.171Z,22.1
2022-12-01T11:34:00.461Z,22.1
2022-12-01T11:35:06.004Z,22.8
2022-12-01T11:36:00.312Z,22.8
2022-12-01T11:37:02.981Z,22.8
2022-12-01T11:38:29.666Z,22.8
2022-12-01T11:39:01.534Z,22.8
2022-12-01T11:40:08.183Z,24.2
2022-12-01T11:41:00.240Z,24.2
2022-12-01T11:42:04.565Z,24.2
2022-12-01T11:43:03.714Z,24.2
2022-12-01T11:44:06.345Z,24.2
2022-12-01T11:45:20.117Z,26.9
2022-12-01T11:46:05.244Z,26.9
2022-12-01T11:47:22.635Z,26.9
2022-12-01T11:48:06.049Z,26.9
2022-12-01T11:49:00.477Z,26.9
2022-12-01T11:50:11.783Z,22.9
2022-12-01T11:51:15.130Z,22.9
2022-12-01T11:52:17.628Z,22.9
2022-12-01T11:53:01.411Z,22.9
2022-12-01T11:54:12.028Z,22.9
2022-12-01T11:55:12.196Z,19.5
2022-12-01T11:56:20.133Z,19.5
2022-12-01T11:57:31.892Z,19.5
2022-12-01T11:58:02.591Z,19.5
2022-12-01T11:59:05.714Z,19.5
2022-12-01T12:00:00.400Z,26.7
2022-12-01T12:01:00.616Z,26.7
2022-12-01T12:02:10.214Z,26.7
2022-12-01T12:03:15.336Z,26.7
2022-12-01T12:04:17.482Z,26.7
2022-12-01T12:05:20.112Z,23.2
2022-12-01T12:06:38.927Z,23.2
2022-12-01T12:07:08.828Z,23.2
2022-12-01T12:08:10.181Z,23.2
2022-12-01T12:09:17.821Z,23.2
2022-12-01T12:10:05.948Z,25.2
2022-12-01T12:11:15.741Z,25.2
2022-12-01T12:12:09.804Z,25.2
2022-12-01T12:13:11.211Z,25.2
2022-12-01T12:14:13.419Z,25.2
2022-12-01T12:15:20.118Z,21.9
2022-12-01T12:16:14.397Z,21.9
2022-12-01T12:17:20.157Z,21.9
2022-12-01T12:18:10.017Z,21.9
2022-12-01T12:19:03.558Z,21.9
2022-12-01T12:20:20.196Z,25.7
2022-12-01T12:21:13.817Z,25.7
2022-12-01T12:22:20.153Z,25.7
2022-12-01T12:23:06.774Z,25.7
2022-12-01T12:24:19.570Z,25.7
2022-12-01T12:25:20.154Z,25.3
2022-12-01T12:26:17.873Z,25.3
2022-12-01T12:27:10.157Z,25.3
2022-12-01T12:28:10.181Z,25.3
2022-12-01T12:29:16.378Z,25.3
2022-12-01T12:30:17.626Z,23.2
2022-12-01T12:31:20.176Z,23.2
2022-12-01T12:32:20.131Z,23.2
2022-12-01T12:33:16.091Z,23.2
2022-12-01T12:34:11.240Z,23.2
2022-12-01T12:35:17.669Z,24.4
2022-12-01T12:36:09.652Z,24.4
2022-12-01T12:37:20.136Z,24.4
2022-12-01T12:38:08.738Z,24.4
2022-12-01T12:39:20.142Z,24.4
2022-12-01T12:40:20.159Z,22.7
2022-12-01T12:41:16.798Z,22.7
2022-12-01T12:42:06.154Z,22.7
2022-12-01T12:43:10.171Z,22.7
2022-12-01T12:44:19.719Z,22.7
2022-12-01T12:45:13.448Z,22.5
2022-12-01T12:46:09.158Z,22.5
2022-12-01T12:47:18.913Z,22.5
2022-12-01T12:48:20.118Z,22.5
2022-12-01T12:49:20.165Z,22.5
2022-12-01T12:50:20.118Z,23.2
2022-12-01T12:51:17.545Z,23.2
2022-12-01T12:52:08.909Z,23.2
2022-12-01T12:53:07.595Z,23.2
2022-12-01T12:54:09.181Z,23.2
2022-12-01T12:55:17.615Z,18.9
2022-12-01T12:56:05.099Z,18.9
2022-12-01T12:57:04.928Z,18.9
2022-12-01T12:58:11.272Z,18.9
2022-12-01T12:59:08.820Z,18.9
2022-12-01T13:00:00.426Z,23.2
2022-12-01T13:01:14.559Z,23.2
2022-12-01T13:02:15.517Z,23.2
2022-12-01T13:03:04.116Z,23.2
2022-12-01T13:04:06.615Z,23.2
2022-12-01T13:05:11.186Z,19.3
2022-12-01T13:06:07.997Z,19.3
2022-12-01T13:07:06.060Z,19.3
2022-12-01T13:08:05.077Z,19.3
2022-12-01T13:09:04.565Z,19.3
2022-12-01T13:10:07.934Z,21.4
2022-12-01T13:11:04.536Z,21.4
2022-12-01T13:12:16.125Z,21.4
2022-12-01T13:13:20.155Z,21.4
2022-12-01T13:14:17.578Z,20.9
2022-12-01T13:15:13.975Z,20.9
2022-12-01T13:16:04.397Z,20.9
2022-12-01T13:17:13.449Z,20.9
2022-12-01T13:18:08.856Z,20.9